»·PEaware :: N16RD KSBP-KSMX

N16RD :: KSBP-KSMX

FLIGHT INFORMATION

Flight Status: Arrived
Operator: Privately registered:
United States
More flights under this callsign
Pilot: Brett B. (12105)
Aircraft: CESSNA 182 SKYLANE
(C182)
More flights by this aircraft type
Origin: KSBP San Luis Co Regl
United States
Destination: KSMX Santa Maria Pub/Capt Hancock
United States
More flights between these airports :: More routes between these airports
Route: KSBP KSMX
File this flight plan on PilotEdge
Remarks:
Altitude:
(Current/Filed)
3,500ft
Speed:
(Current/Filed)
125kts
Departed: 28-Nov-18 07:37 PM
Arrived: 28-Nov-18 07:50 PM
Distance/Time
Traveled:
22nm/0:12
Distance/Time
To Go:
Arrived

Flight Plot

Page will automatically refresh every two minutes.


Map Options




Map Legend


Flown Route
Filed Route
Departure Airport
Arrival Airport
Navaid (VOR, NDB)
Fix

Horizontal Profiles

Position Reports

Time Latitude Longitude Heading Altitude Ground
Speed
28-Nov-18 19:17 35.238316 -120.636932 90 215ft 0kts
28-Nov-18 19:18 35.238316 -120.636932 90 215ft 0kts
28-Nov-18 19:19 35.238316 -120.636932 90 215ft 0kts
28-Nov-18 19:20 35.238316 -120.636932 90 215ft 0kts
28-Nov-18 19:21 35.238316 -120.636932 90 215ft 0kts
28-Nov-18 19:22 35.238316 -120.636932 90 215ft 0kts
28-Nov-18 19:23 35.238316 -120.636932 90 215ft 0kts
28-Nov-18 19:24 35.238316 -120.636932 90 215ft 0kts
28-Nov-18 19:25 35.238316 -120.636932 90 215ft 0kts
28-Nov-18 19:26 35.238316 -120.636932 90 215ft 0kts
28-Nov-18 19:27 35.238316 -120.636932 90 215ft 0kts
28-Nov-18 19:28 35.238316 -120.636932 90 215ft 0kts
28-Nov-18 19:29 35.238316 -120.636932 90 215ft 0kts
28-Nov-18 19:30 35.238316 -120.636932 90 215ft 0kts
28-Nov-18 19:31 35.238316 -120.636932 90 215ft 0kts
28-Nov-18 19:32 35.238316 -120.636932 90 215ft 0kts
28-Nov-18 19:33 35.238316 -120.636932 90 215ft 0kts
28-Nov-18 19:34 35.238316 -120.636932 90 215ft 0kts
28-Nov-18 19:35 35.238382 -120.636980 242 215ft 4kts
28-Nov-18 19:36 35.236959 -120.637843 209 215ft 7kts
28-Nov-18 19:37 35.236302 -120.637367 127 215ft 0kts
28-Nov-18 19:38 35.234489 -120.634168 124 215ft 19kts
28-Nov-18 19:39 35.233228 -120.632652 220 215ft 0kts
28-Nov-18 19:40 35.239240 -120.644293 305 310ft 105kts
28-Nov-18 19:41 35.250963 -120.677392 251 1456ft 116kts
28-Nov-18 19:42 35.224306 -120.681763 130 2238ft 139kts
28-Nov-18 19:43 35.189713 -120.668185 177 2925ft 136kts
28-Nov-18 19:44 35.153745 -120.654800 150 3505ft 154kts
28-Nov-18 19:45 35.116054 -120.622956 146 3509ft 169kts
28-Nov-18 19:46 35.076043 -120.597452 155 3506ft 169kts
28-Nov-18 19:47 35.036624 -120.574007 152 3494ft 140kts
28-Nov-18 19:48 35.001618 -120.559955 170 3404ft 128kts
28-Nov-18 19:49 34.968350 -120.542015 141 2252ft 131kts
28-Nov-18 19:50 34.947549 -120.513331 127 1491ft 127kts
28-Nov-18 19:51 34.923383 -120.482900 134 757ft 120kts
28-Nov-18 19:52 34.906267 -120.461899 136 276ft 64kts
28-Nov-18 19:53 34.903262 -120.456934 50 264ft 0kts
28-Nov-18 19:54 34.904974 -120.454090 78 264ft 20kts
28-Nov-18 19:55 34.904080 -120.455634 225 264ft 0kts
28-Nov-18 19:56 34.904080 -120.455634 225 264ft 0kts
28-Nov-18 19:57 34.904080 -120.455634 225 264ft 0kts
28-Nov-18 19:58 34.904080 -120.455634 225 264ft 0kts
28-Nov-18 19:59 34.904080 -120.455634 225 264ft 0kts
28-Nov-18 20:00 34.904080 -120.455634 225 264ft 0kts
28-Nov-18 20:01 34.904080 -120.455634 225 264ft 0kts
28-Nov-18 20:02 34.904080 -120.455634 225 264ft 0kts
28-Nov-18 20:03 34.904080 -120.455634 225 264ft 0kts
28-Nov-18 20:04 34.904080 -120.455634 225 264ft 0kts
28-Nov-18 20:05 34.904080 -120.455634 225 264ft 0kts
28-Nov-18 20:06 34.904080 -120.455634 225 264ft 0kts
28-Nov-18 20:07 34.904080 -120.455634 225 264ft 0kts

Navigation Log

Ident Type
Flight plan parsing failed, navigation log unavailable